Time;durP1;ratioP1;P1;durP2;ratioP2;P2;SDS_P1;SDS_P2;PMS_P1;PMS_P2;Temp;Humidity;BMP_temperature;BMP_pressure;BME280_temperature;BME280_humidity;BME280_pressure;Samples;Min_cycle;Max_cycle;Signal;HPM_P1;HPM_P2
2021/10/05 00:00:02;;;;;;;;;;;;;;;-142.75;96.38;76737.63;5074713;28;19973;-75
2021/10/05 00:02:28;;;;;;;;;;;;;;;-142.75;96.65;76731.72;5077381;28;20029;-75
2021/10/05 00:04:53;;;;;;;;;;;;;;;-142.75;96.14;76737.63;5092709;28;19963;-75
2021/10/05 00:07:18;;;;;;;;;;;;;;;-142.75;96.48;76745.50;5092913;28;19916;-77
2021/10/05 00:09:43;;;;;;;;;;;;;;;-142.75;96.40;76741.56;5109794;28;19924;-76
2021/10/05 00:12:09;;;;;;;;;;;;;;;-142.75;96.68;76759.28;5112756;28;19915;-76
2021/10/05 00:14:34;;;;;;;;;;;;;;;-142.75;97.22;76759.28;5094429;28;19950;-75
2021/10/05 00:16:59;;;;;;;;;;;;;;;-142.75;97.16;76745.50;5090335;28;19962;-74
2021/10/05 00:19:24;;;;;;;;;;;;;;;-142.75;96.21;76727.78;5113598;28;19916;-75
2021/10/05 00:21:51;;;;;;;;;;;;;;;-142.75;95.02;76719.91;5094633;28;20361;-74
2021/10/05 00:24:16;;;;;;;;;;;;;;;-142.75;94.69;76723.84;5097341;28;19962;-76
2021/10/05 00:26:41;;;;;;;;;;;;;;;-142.75;95.24;76723.84;5092417;28;19920;-75
2021/10/05 00:29:06;;;;;;;;;;;;;;;-142.75;94.84;76725.81;5092704;28;19926;-73
2021/10/05 00:31:31;;;;;;;;;;;;;;;-142.75;94.91;76715.97;5079847;28;19916;-75
2021/10/05 00:33:57;;;;;;;;;;;;;;;-142.75;94.82;76723.84;5104702;28;19927;-77
2021/10/05 00:36:22;;;;;;;;;;;;;;;-142.75;95.22;76735.66;5112019;28;20362;-78
2021/10/05 00:38:47;;;;;;;;;;;;;;;-142.75;95.11;76715.97;5074624;28;19935;-77
2021/10/05 00:41:12;;;;;;;;;;;;;;;-142.75;94.59;76715.97;5100953;28;20392;-76
2021/10/05 00:43:37;;;;;;;;;;;;;;;-142.75;94.63;76719.91;5103742;28;19920;-77
2021/10/05 00:46:03;;;;;;;;;;;;;;;-142.75;94.41;76706.13;5098285;28;20292;-77
2021/10/05 00:48:28;;;;;;;;;;;;;;;-142.75;94.45;76723.84;5093442;28;19958;-77
2021/10/05 00:50:53;;;;;;;;;;;;;;;-142.75;94.48;76721.88;5082793;28;19957;-75
2021/10/05 00:53:18;;;;;;;;;;;;;;;-142.75;95.70;76727.78;5100591;28;19920;-76
2021/10/05 00:55:44;;;;;;;;;;;;;;;-142.75;95.04;76723.84;5091795;28;19999;-75
2021/10/05 00:58:09;;;;;;;;;;;;;;;-142.75;93.86;76719.91;5098898;28;19969;-75
2021/10/05 01:00:37;;;;;;;;;;;;;;;-142.75;93.82;76733.69;5111814;28;19919;-75
2021/10/05 01:03:02;;;;;;;;;;;;;;;-142.75;94.03;76717.94;5112035;28;20368;-76
2021/10/05 01:05:28;;;;;;;;;;;;;;;-142.75;93.02;76714.00;5103177;28;19931;-76
2021/10/05 01:07:53;;;;;;;;;;;;;;;-142.75;93.11;76700.22;5091634;28;19983;-75
2021/10/05 01:10:18;;;;;;;;;;;;;;;-142.75;92.84;76706.13;5110882;28;19961;-75
2021/10/05 01:12:47;;;;;;;;;;;;;;;-142.75;92.33;76692.34;5111952;28;20369;-75
2021/10/05 01:15:13;;;;;;;;;;;;;;;-142.75;91.79;76692.34;5092456;28;19924;-77
2021/10/05 01:17:38;;;;;;;;;;;;;;;-142.75;92.06;76725.81;5091926;28;19969;-75
2021/10/05 01:20:04;;;;;;;;;;;;;;;-142.75;92.20;76708.09;5112218;28;19927;-74
2021/10/05 01:22:29;;;;;;;;;;;;;;;-142.75;92.83;76725.81;5079127;28;20262;-76
2021/10/05 01:24:54;;;;;;;;;;;;;;;-142.75;93.15;76712.03;5111469;28;20012;-75
2021/10/05 01:27:19;;;;;;;;;;;;;;;-142.75;92.38;76700.22;5100700;28;19916;-76
2021/10/05 01:29:44;;;;;;;;;;;;;;;-142.75;92.02;76696.28;5082801;28;19915;-76
2021/10/05 01:32:09;;;;;;;;;;;;;;;-142.75;91.96;76680.53;5093015;28;19941;-74
2021/10/05 01:34:35;;;;;;;;;;;;;;;-142.75;91.92;76696.28;5111128;28;19916;-75
2021/10/05 01:37:00;;;;;;;;;;;;;;;-142.75;92.83;76715.97;5111260;28;19915;-75
2021/10/05 01:39:26;;;;;;;;;;;;;;;-142.75;93.91;76723.84;5090586;28;19922;-76
2021/10/05 01:41:52;;;;;;;;;;;;;;;-142.75;93.37;76708.09;5072579;28;20309;-73
2021/10/05 01:44:17;;;;;;;;;;;;;;;-142.75;94.11;76727.78;5084339;28;19919;-75
2021/10/05 01:46:42;;;;;;;;;;;;;;;-142.75;94.37;76731.72;5092841;28;19938;-75
2021/10/05 01:49:07;;;;;;;;;;;;;;;-142.75;94.66;76729.75;5091802;28;19924;-77
2021/10/05 01:51:33;;;;;;;;;;;;;;;-142.75;93.33;76688.41;5090471;28;20381;-77
2021/10/05 01:53:58;;;;;;;;;;;;;;;-142.75;94.17;76708.09;5091150;28;19991;-77
2021/10/05 01:56:23;;;;;;;;;;;;;;;-142.75;94.33;76702.19;5072586;28;19916;-76
2021/10/05 01:58:48;;;;;;;;;;;;;;;-142.75;94.08;76688.41;5072536;28;19920;-77
2021/10/05 02:01:14;;;;;;;;;;;;;;;-142.75;93.71;76682.50;5090479;28;19924;-76
2021/10/05 02:03:39;;;;;;;;;;;;;;;-142.75;94.03;76680.53;5090794;28;19916;-76
2021/10/05 02:06:05;;;;;;;;;;;;;;;-142.75;93.83;76692.34;5090361;28;20003;-77
2021/10/05 02:08:30;;;;;;;;;;;;;;;-142.75;94.80;76700.22;5072570;28;19959;-77
2021/10/05 02:10:55;;;;;;;;;;;;;;;-142.75;95.17;76704.16;5110314;28;19998;-76
2021/10/05 02:13:20;;;;;;;;;;;;;;;-142.75;95.24;76696.28;5110970;28;19984;-77
2021/10/05 02:15:45;;;;;;;;;;;;;;;-142.75;96.95;76706.13;5110833;28;19931;-77
2021/10/05 02:18:11;;;;;;;;;;;;;;;-142.75;99.15;76739.59;5111787;28;19923;-77
2021/10/05 02:20:36;;;;;;;;;;;;;;;-142.75;98.99;76719.91;5092438;28;20104;-76
2021/10/05 02:23:01;;;;;;;;;;;;;;;-142.75;99.14;76712.03;5092899;28;19920;-77
2021/10/05 02:25:26;;;;;;;;;;;;;;;-142.75;99.75;76719.91;5110438;28;19930;-77
2021/10/05 02:27:52;;;;;;;;;;;;;;;-142.75;100.00;76712.03;5109622;28;20281;-77
2021/10/05 02:30:17;;;;;;;;;;;;;;;-142.75;99.56;76704.16;5071923;28;19923;-76
2021/10/05 02:32:43;;;;;;;;;;;;;;;-142.75;98.66;76700.22;5090258;28;19947;-77
2021/10/05 02:35:09;;;;;;;;;;;;;;;-142.75;98.98;76712.03;5090307;28;19920;-77
2021/10/05 02:37:34;;;;;;;;;;;;;;;-142.75;99.98;76721.88;5072077;28;19920;-77
2021/10/05 02:40:02;;;;;;;;;;;;;;;-142.75;99.96;76725.81;5090873;28;19920;-77
2021/10/05 02:42:28;;;;;;;;;;;;;;;-142.75;99.95;76710.06;5090247;28;19920;-77
2021/10/05 02:44:53;;;;;;;;;;;;;;;-142.75;99.80;76719.91;5072281;28;19924;-77
2021/10/05 02:47:19;;;;;;;;;;;;;;;-142.75;100.00;76735.66;5090488;28;19916;-77
2021/10/05 02:49:44;;;;;;;;;;;;;;;-142.75;100.00;76717.94;5091069;28;19923;-77
2021/10/05 02:52:10;;;;;;;;;;;;;;;-142.75;100.00;76737.63;5090237;28;19916;-76
2021/10/05 02:54:36;;;;;;;;;;;;;;;-142.75;100.00;76727.78;5089864;28;19916;-78
2021/10/05 02:57:01;;;;;;;;;;;;;;;-142.75;100.00;76739.59;5090462;28;19922;-77
2021/10/05 02:59:28;;;;;;;;;;;;;;;-142.75;100.00;76737.63;5077685;28;19947;-78
2021/10/05 03:01:53;;;;;;;;;;;;;;;-142.75;100.00;76749.44;5071786;28;20341;-76
2021/10/05 03:04:18;;;;;;;;;;;;;;;-142.75;100.00;76741.56;5074915;28;20038;-77
2021/10/05 03:06:44;;;;;;;;;;;;;;;-142.75;100.00;76743.53;5094416;28;19916;-77
2021/10/05 03:09:09;;;;;;;;;;;;;;;-142.75;100.00;76733.69;5094097;28;19923;-77
2021/10/05 03:11:34;;;;;;;;;;;;;;;-142.75;100.00;76747.47;5099699;22;19932;-74
2021/10/05 03:13:59;;;;;;;;;;;;;;;-142.75;100.00;76745.50;5075002;28;19924;-74
2021/10/05 03:16:24;;;;;;;;;;;;;;;-142.75;100.00;76747.47;5106683;28;19979;-74
2021/10/05 03:18:50;;;;;;;;;;;;;;;-142.75;100.00;76749.44;5081728;28;19923;-74
2021/10/05 03:21:16;;;;;;;;;;;;;;;-142.75;100.00;76727.78;5110769;28;19973;-74
2021/10/05 03:23:41;;;;;;;;;;;;;;;-142.75;100.00;76733.69;5094939;28;20385;-75
2021/10/05 03:26:06;;;;;;;;;;;;;;;-142.75;100.00;76731.72;5078904;28;20014;-74
2021/10/05 03:28:32;;;;;;;;;;;;;;;-142.75;100.00;76727.78;5096902;28;19916;-74
2021/10/05 03:30:59;;;;;;;;;;;;;;;-142.75;100.00;76729.75;5075236;28;19916;-74
2021/10/05 03:33:24;;;;;;;;;;;;;;;-142.75;100.00;76731.72;5095442;28;19923;-75
2021/10/05 03:35:49;;;;;;;;;;;;;;;-142.75;100.00;76749.44;5113343;28;19915;-74
2021/10/05 03:38:14;;;;;;;;;;;;;;;-142.75;100.00;76739.59;5081328;28;20392;-75
2021/10/05 03:40:40;;;;;;;;;;;;;;;-142.75;100.00;76731.72;5104476;28;20519;-73
2021/10/05 03:43:05;;;;;;;;;;;;;;;-142.75;100.00;76723.84;5098929;28;19916;-74
2021/10/05 03:45:30;;;;;;;;;;;;;;;-142.75;100.00;76731.72;5105174;28;19916;-75
2021/10/05 03:47:55;;;;;;;;;;;;;;;-142.75;100.00;76719.91;5102442;28;19924;-75
2021/10/05 03:50:21;;;;;;;;;;;;;;;-142.75;100.00;76714.00;5096346;28;19923;-73
2021/10/05 03:52:47;;;;;;;;;;;;;;;-142.75;100.00;76694.31;5084176;28;19922;-76
2021/10/05 03:55:12;;;;;;;;;;;;;;;-142.75;100.00;76714.00;5107749;28;20400;-74
2021/10/05 03:57:38;;;;;;;;;;;;;;;-142.75;100.00;76700.22;5074708;28;19916;-75
2021/10/05 04:00:04;;;;;;;;;;;;;;;-142.75;100.00;76686.44;5092779;28;20292;-74
2021/10/05 04:02:29;;;;;;;;;;;;;;;-142.75;100.00;76684.47;5075828;28;19916;-74
2021/10/05 04:04:55;;;;;;;;;;;;;;;-142.75;100.00;76684.47;5092591;28;21822;-74
2021/10/05 04:07:20;;;;;;;;;;;;;;;-142.75;100.00;76684.47;5084256;28;19943;-73
2021/10/05 04:09:45;;;;;;;;;;;;;;;-142.75;100.00;76680.53;5095590;28;19920;-74
2021/10/05 04:12:10;;;;;;;;;;;;;;;-142.75;100.00;76674.63;5101940;28;19961;-74
2021/10/05 04:14:35;;;;;;;;;;;;;;;-142.75;100.00;76682.50;5104915;28;19916;-74
2021/10/05 04:17:01;;;;;;;;;;;;;;;-142.75;100.00;76676.59;5099798;28;19916;-72
2021/10/05 04:19:26;;;;;;;;;;;;;;;-142.75;100.00;76694.31;5093303;28;19916;-73
2021/10/05 04:21:51;;;;;;;;;;;;;;;-142.75;100.00;76680.53;5074245;28;19969;-74
2021/10/05 04:24:16;;;;;;;;;;;;;;;-142.75;100.00;76668.72;5097691;28;19939;-74
2021/10/05 04:26:41;;;;;;;;;;;;;;;-142.75;100.00;76684.47;5106874;28;19968;-74
2021/10/05 04:29:07;;;;;;;;;;;;;;;-142.75;100.00;76676.59;5107045;28;19939;-72
2021/10/05 04:31:32;;;;;;;;;;;;;;;-142.75;100.00;76684.47;5112522;28;19923;-73
2021/10/05 04:33:57;;;;;;;;;;;;;;;-142.75;100.00;76670.69;5107178;28;20384;-74
2021/10/05 04:36:22;;;;;;;;;;;;;;;-142.75;100.00;76680.53;5099763;28;19916;-74
2021/10/05 04:38:47;;;;;;;;;;;;;;;-142.75;100.00;76684.47;5095347;28;20383;-75
2021/10/05 04:41:12;;;;;;;;;;;;;;;-142.75;100.00;76682.50;5086065;28;20018;-73
2021/10/05 04:43:38;;;;;;;;;;;;;;;-142.75;100.00;76688.41;5089649;28;19951;-73
2021/10/05 04:46:03;;;;;;;;;;;;;;;-142.75;100.00;76684.47;5109222;28;19931;-74
2021/10/05 04:48:28;;;;;;;;;;;;;;;-142.75;100.00;76692.34;5092480;28;19990;-74
2021/10/05 04:50:53;;;;;;;;;;;;;;;-142.75;100.00;76684.47;5084497;28;19915;-75
2021/10/05 04:53:19;;;;;;;;;;;;;;;-142.75;100.00;76664.78;5082759;28;19923;-74
2021/10/05 04:55:44;;;;;;;;;;;;;;;-142.75;100.00;76670.69;5086068;28;19959;-74
2021/10/05 04:58:13;;;;;;;;;;;;;;;-142.75;100.00;76668.72;5090244;28;19916;-73
2021/10/05 05:00:38;;;;;;;;;;;;;;;-142.75;100.00;76660.84;5076456;28;20469;-74
2021/10/05 05:03:03;;;;;;;;;;;;;;;-142.75;100.00;76645.09;5092922;28;19916;-74
2021/10/05 05:05:29;;;;;;;;;;;;;;;-142.75;100.00;76645.09;5079283;28;19923;-74
2021/10/05 05:08:00;;;;;;;;;;;;;;;-142.75;100.00;76656.91;5093706;28;19920;-74
2021/10/05 05:10:26;;;;;;;;;;;;;;;-142.75;100.00;76649.03;5104786;28;19920;-75
2021/10/05 05:12:52;;;;;;;;;;;;;;;-142.75;100.00;76658.88;5105043;28;19922;-74
2021/10/05 05:15:17;;;;;;;;;;;;;;;-142.75;100.00;76647.06;5101356;28;19924;-75
2021/10/05 05:17:42;;;;;;;;;;;;;;;-142.75;100.00;76643.13;5105989;28;19915;-75
2021/10/05 05:20:08;;;;;;;;;;;;;;;-142.75;100.00;76639.19;5108633;28;19942;-74
2021/10/05 05:22:33;;;;;;;;;;;;;;;-142.75;100.00;76649.03;5096654;28;19920;-74
2021/10/05 05:24:58;;;;;;;;;;;;;;;-142.75;100.00;76637.22;5099690;28;19916;-73
2021/10/05 05:27:24;;;;;;;;;;;;;;;-142.75;100.00;76641.16;5097518;28;19981;-74
2021/10/05 05:29:50;;;;;;;;;;;;;;;-142.75;100.00;76654.94;5092131;28;20336;-74
2021/10/05 05:32:16;;;;;;;;;;;;;;;-142.75;100.00;76662.81;5079956;28;19999;-74
2021/10/05 05:34:41;;;;;;;;;;;;;;;-142.75;100.00;76652.97;5092656;28;19994;-75
2021/10/05 05:37:06;;;;;;;;;;;;;;;-142.75;100.00;76647.06;5093002;28;19916;-74
2021/10/05 05:39:33;;;;;;;;;;;;;;;-142.75;100.00;76645.09;5085108;28;19938;-74
2021/10/05 05:41:58;;;;;;;;;;;;;;;-142.75;100.00;76647.06;5086327;28;20065;-74
2021/10/05 05:44:23;;;;;;;;;;;;;;;-142.75;100.00;76649.03;5097691;28;20374;-74
2021/10/05 05:46:48;;;;;;;;;;;;;;;-142.75;100.00;76641.16;5091452;28;20347;-73
2021/10/05 05:49:13;;;;;;;;;;;;;;;-142.75;100.00;76637.22;5073647;28;19925;-75
2021/10/05 05:51:39;;;;;;;;;;;;;;;-142.75;100.00;76637.22;5096280;28;19916;-75
2021/10/05 05:54:04;;;;;;;;;;;;;;;-142.75;100.00;76629.34;5076511;28;19920;-75
2021/10/05 05:56:29;;;;;;;;;;;;;;;-142.75;100.00;76623.44;5081411;28;20015;-73
2021/10/05 05:58:55;;;;;;;;;;;;;;;-142.75;100.00;76625.41;5098759;28;19920;-75
2021/10/05 06:01:21;;;;;;;;;;;;;;;-142.75;100.00;76609.66;5092487;28;19935;-73
2021/10/05 06:03:49;;;;;;;;;;;;;;;-142.75;100.00;76617.53;5090627;28;19915;-73
2021/10/05 06:06:15;;;;;;;;;;;;;;;-142.75;100.00;76611.63;5072288;28;20318;-74
2021/10/05 06:08:40;;;;;;;;;;;;;;;-142.75;100.00;76593.91;5100517;28;20366;-73
2021/10/05 06:11:06;;;;;;;;;;;;;;;-142.75;100.00;76580.13;5092717;28;19922;-74
2021/10/05 06:13:31;;;;;;;;;;;;;;;-142.75;100.00;76578.16;5090188;28;19916;-74
2021/10/05 06:15:56;;;;;;;;;;;;;;;-142.75;100.00;76586.03;5106954;28;19915;-74
2021/10/05 06:18:22;;;;;;;;;;;;;;;-142.75;100.00;76570.28;5074080;28;20351;-74
2021/10/05 06:20:47;;;;;;;;;;;;;;;-142.75;100.00;76584.06;5081057;28;19958;-74
2021/10/05 06:23:12;;;;;;;;;;;;;;;-142.75;100.00;76562.41;5090341;28;20315;-74
2021/10/05 06:25:40;;;;;;;;;;;;;;;-142.75;100.00;76566.34;5089946;28;20377;-74
2021/10/05 06:28:06;;;;;;;;;;;;;;;-142.75;100.00;76542.72;5092433;28;19975;-74
2021/10/05 06:30:31;;;;;;;;;;;;;;;-142.75;100.00;76548.63;5087998;28;19995;-74
2021/10/05 06:32:56;;;;;;;;;;;;;;;-142.75;100.00;76532.88;5089312;28;19930;-73
2021/10/05 06:35:24;;;;;;;;;;;;;;;-142.75;100.00;76530.91;5101647;28;19915;-74
2021/10/05 06:37:51;;;;;;;;;;;;;;;-142.75;100.00;76528.97;5095752;28;19999;-75
2021/10/05 06:40:16;;;;;;;;;;;;;;;-142.75;100.00;76511.25;5073153;28;20304;-73
2021/10/05 06:42:42;;;;;;;;;;;;;;;-142.75;100.00;76511.25;5097725;28;19924;-75
2021/10/05 06:45:07;;;;;;;;;;;;;;;-142.75;100.00;76501.41;5082572;28;19916;-75
2021/10/05 06:47:33;;;;;;;;;;;;;;;-142.75;100.00;76469.91;5097704;28;20399;-76
2021/10/05 06:49:58;;;;;;;;;;;;;;;-142.75;100.00;76452.19;5085321;28;19923;-76
2021/10/05 06:52:24;;;;;;;;;;;;;;;-142.75;100.00;76402.97;5075430;28;19927;-79
2021/10/05 06:54:49;;;;;;;;;;;;;;;-142.75;100.00;76393.13;5084790;28;19938;-76
2021/10/05 06:57:15;;;;;;;;;;;;;;;-142.75;100.00;76349.81;5086690;28;19916;-76
2021/10/05 06:59:40;;;;;;;;;;;;;;;-142.75;100.00;76343.94;5081421;28;19916;-76
2021/10/05 07:02:06;;;;;;;;;;;;;;;-142.75;99.52;76310.47;5072820;28;19970;-76
2021/10/05 07:04:32;;;;;;;;;;;;;;;-142.75;98.18;76296.69;5078250;28;19916;-76
2021/10/05 07:06:57;;;;;;;;;;;;;;;-142.75;97.63;76300.63;5096350;28;20376;-77
2021/10/05 07:09:22;;;;;;;;;;;;;;;-142.75;97.34;76286.84;5093194;28;19954;-75
2021/10/05 07:11:48;;;;;;;;;;;;;;;-142.75;97.20;76253.38;5081368;28;19915;-77
2021/10/05 07:14:13;;;;;;;;;;;;;;;-142.75;95.19;76217.94;5085374;28;20018;-77
2021/10/05 07:16:38;;;;;;;;;;;;;;;-142.75;93.96;76190.41;5076921;28;19920;-76
2021/10/05 07:19:03;;;;;;;;;;;;;;;-142.75;93.38;76184.50;5098142;28;19916;-78
2021/10/05 07:21:29;;;;;;;;;;;;;;;-142.75;92.47;76168.75;5090448;28;19920;-76
2021/10/05 07:23:54;;;;;;;;;;;;;;;-142.75;91.79;76147.09;5095787;28;22115;-77
2021/10/05 07:26:20;;;;;;;;;;;;;;;-142.75;89.42;76139.22;5101662;28;19964;-75
2021/10/05 07:28:45;;;;;;;;;;;;;;;-142.75;89.25;76078.19;5107750;28;19919;-78
2021/10/05 07:31:11;;;;;;;;;;;;;;;-142.75;87.62;76054.59;5105606;28;19915;-77
2021/10/05 07:33:36;;;;;;;;;;;;;;;-142.75;88.44;76109.69;5077877;28;20661;-75
2021/10/05 07:36:01;;;;;;;;;;;;;;;-142.75;88.40;76129.38;5097142;28;20460;-77
2021/10/05 07:38:27;;;;;;;;;;;;;;;-142.75;86.76;76082.13;5081216;28;19916;-75
2021/10/05 07:40:52;;;;;;;;;;;;;;;-142.75;84.52;76038.84;5093084;28;19920;-76
2021/10/05 07:43:17;;;;;;;;;;;;;;;-142.75;84.65;76068.38;5093407;28;20028;-76
2021/10/05 07:45:42;;;;;;;;;;;;;;;-142.75;86.20;76046.72;5082141;28;19916;-73
2021/10/05 07:48:08;;;;;;;;;;;;;;;-142.75;86.12;76038.84;5086901;28;19920;-76
2021/10/05 07:50:34;;;;;;;;;;;;;;;-142.75;86.60;76015.22;5075591;28;19916;-75
2021/10/05 07:53:00;;;;;;;;;;;;;;;-142.75;82.62;75946.34;5086839;28;19977;-76
2021/10/05 07:55:26;;;;;;;;;;;;;;;-142.75;79.97;75861.69;5087013;28;19951;-75
2021/10/05 07:57:51;;;;;;;;;;;;;;;-142.75;78.83;75879.41;5103941;28;19915;-75
2021/10/05 08:00:16;;;;;;;;;;;;;;;-142.75;78.11;75847.94;5111134;28;20280;-75
2021/10/05 08:02:44;;;;;;;;;;;;;;;-142.75;79.44;75924.69;5096181;28;20423;-74
2021/10/05 08:05:09;;;;;;;;;;;;;;;-142.75;79.63;75944.38;5080202;28;19916;-75
2021/10/05 08:07:34;;;;;;;;;;;;;;;-142.75;79.04;75869.56;5102312;28;19920;-76
2021/10/05 08:09:59;;;;;;;;;;;;;;;-142.75;79.56;75855.81;5083832;28;19916;-75
2021/10/05 08:12:24;;;;;;;;;;;;;;;-142.75;77.86;75830.22;5096332;28;19920;-76
2021/10/05 08:14:50;;;;;;;;;;;;;;;-142.75;78.90;75857.78;5101484;28;19924;-76
2021/10/05 08:17:16;;;;;;;;;;;;;;;-142.75;77.87;75800.69;5096056;28;20050;-75
2021/10/05 08:19:41;;;;;;;;;;;;;;;-142.75;77.00;75782.97;5108301;28;19923;-74
2021/10/05 08:22:06;;;;;;;;;;;;;;;-142.75;76.49;75790.84;5111528;28;19919;-75
2021/10/05 08:24:31;;;;;;;;;;;;;;;-142.75;75.50;75723.94;5099295;28;20035;-74
2021/10/05 08:26:57;;;;;;;;;;;;;;;-142.75;72.78;75657.03;5098611;28;20402;-75
2021/10/05 08:29:22;;;;;;;;;;;;;;;-142.75;73.59;75741.66;5075765;28;19916;-75
2021/10/05 08:31:48;;;;;;;;;;;;;;;-142.75;71.43;75641.28;5083596;28;19919;-74
2021/10/05 08:34:13;;;;;;;;;;;;;;;-142.75;69.33;75556.66;5099828;28;19922;-75
2021/10/05 08:36:39;;;;;;;;;;;;;;;-142.75;70.16;75651.13;5098940;28;19928;-74
2021/10/05 08:39:04;;;;;;;;;;;;;;;-142.75;71.68;75735.75;5097466;28;20026;-74
2021/10/05 08:41:29;;;;;;;;;;;;;;;-142.75;74.43;75775.09;5091628;28;20368;-75
2021/10/05 08:43:54;;;;;;;;;;;;;;;-142.75;77.80;75804.63;5096348;28;19923;-74
2021/10/05 08:46:19;;;;;;;;;;;;;;;-142.75;77.45;75775.09;5088684;28;19916;-75
2021/10/05 08:48:46;;;;;;;;;;;;;;;-142.75;78.62;75838.09;5088667;28;19931;-74
2021/10/05 08:51:11;;;;;;;;;;;;;;;-142.75;81.52;75830.22;5091397;28;19916;-75
2021/10/05 08:53:37;;;;;;;;;;;;;;;-142.75;80.45;75786.91;5096856;28;19923;-73
2021/10/05 08:56:04;;;;;;;;;;;;;;;-142.75;77.99;75790.84;5093944;28;20441;-75
2021/10/05 08:58:29;;;;;;;;;;;;;;;-142.75;77.31;75731.81;5079461;28;19942;-75
2021/10/05 09:01:04;;;;;;;;;;;;;;;-142.75;77.26;75786.91;5100549;28;19923;-74
2021/10/05 09:03:30;;;;;;;;;;;;;;;-142.75;79.19;75816.44;5078009;28;19924;-75
2021/10/05 09:05:55;;;;;;;;;;;;;;;-142.75;81.48;75853.84;5097630;28;20351;-76
2021/10/05 09:08:21;;;;;;;;;;;;;;;-142.75;82.69;75881.38;5085678;28;19922;-74
2021/10/05 09:10:46;;;;;;;;;;;;;;;-142.75;83.43;75855.81;5090098;28;19922;-74
2021/10/05 09:13:11;;;;;;;;;;;;;;;-142.75;82.64;75897.13;5104826;28;20019;-76
2021/10/05 09:15:36;;;;;;;;;;;;;;;-142.75;82.84;75853.84;5098584;28;20400;-75
2021/10/05 09:18:02;;;;;;;;;;;;;;;-142.75;82.71;75830.22;5098098;28;19969;-75
2021/10/05 09:20:29;;;;;;;;;;;;;;;-142.75;82.90;75814.47;5093296;28;19923;-74
2021/10/05 09:22:55;;;;;;;;;;;;;;;-142.75;81.12;75820.38;5108025;28;19916;-74
2021/10/05 09:25:25;;;;;;;;;;;;;;;-142.75;82.54;75830.22;5100460;28;19924;-75
2021/10/05 09:27:50;;;;;;;;;;;;;;;-142.75;80.63;75814.47;5100154;28;19916;-75
2021/10/05 09:30:19;;;;;;;;;;;;;;;-142.75;80.57;75771.16;5088040;28;19965;-75
2021/10/05 09:32:57;;;;;;;;;;;;;;;-142.75;77.92;75735.75;5105689;28;19943;-76
2021/10/05 09:35:22;;;;;;;;;;;;;;;-142.75;77.38;75745.59;5081769;28;19916;-74
2021/10/05 09:37:47;;;;;;;;;;;;;;;-142.75;77.59;75739.69;5107649;28;19919;-74
2021/10/05 09:40:13;;;;;;;;;;;;;;;-142.75;78.46;75782.97;5097554;28;19923;-74
2021/10/05 09:42:40;;;;;;;;;;;;;;;-142.75;78.65;75751.50;5103828;28;20304;-74
2021/10/05 09:45:07;;;;;;;;;;;;;;;-142.75;77.07;75714.09;5104402;28;20344;-74
2021/10/05 09:47:35;;;;;;;;;;;;;;;-142.75;77.92;75773.13;5105216;28;19938;-74
2021/10/05 09:50:01;;;;;;;;;;;;;;;-142.75;79.81;75806.59;5105433;28;20008;-72
2021/10/05 09:52:41;;;;;;;;;;;;;;;-142.75;80.20;75794.78;5072251;28;20313;-75
2021/10/05 09:55:07;;;;;;;;;;;;;;;-142.75;80.90;75796.75;5092081;28;19916;-74
2021/10/05 09:57:32;;;;;;;;;;;;;;;-142.75;81.55;75786.91;5079069;28;19923;-75
2021/10/05 09:59:58;;;;;;;;;;;;;;;-142.75;80.94;75779.03;5091343;28;19947;-73
2021/10/05 10:02:23;;;;;;;;;;;;;;;-142.75;79.65;75716.06;5086636;28;20643;-74
2021/10/05 10:04:48;;;;;;;;;;;;;;;-142.75;78.47;75716.06;5077992;28;20023;-74
2021/10/05 10:07:14;;;;;;;;;;;;;;;-142.75;78.21;75716.06;5099069;28;20028;-74
2021/10/05 10:09:39;;;;;;;;;;;;;;;-142.75;77.35;75737.72;5093392;28;19916;-74
2021/10/05 10:12:04;;;;;;;;;;;;;;;-142.75;79.78;75763.28;5075418;28;19920;-74
2021/10/05 10:14:30;;;;;;;;;;;;;;;-142.75;78.69;75716.06;5075256;28;20011;-75
2021/10/05 10:16:55;;;;;;;;;;;;;;;-142.75;79.38;75790.84;5109676;28;19965;-73
2021/10/05 10:19:24;;;;;;;;;;;;;;;-142.75;81.02;75822.34;5105337;28;19922;-73
2021/10/05 10:21:49;;;;;;;;;;;;;;;-142.75;82.45;75836.13;5076829;28;19920;-74
2021/10/05 10:24:15;;;;;;;;;;;;;;;-142.75;83.44;75842.03;5102234;28;19931;-74
2021/10/05 10:26:44;;;;;;;;;;;;;;;-142.75;83.36;75814.47;5080403;28;20011;-74
2021/10/05 10:29:13;;;;;;;;;;;;;;;-142.75;83.69;75786.91;5088986;28;19915;-75
2021/10/05 10:31:39;;;;;;;;;;;;;;;-142.75;82.55;75792.81;5082932;28;20040;-74
2021/10/05 10:34:04;;;;;;;;;;;;;;;-142.75;82.14;75745.59;5081421;28;19916;-75
2021/10/05 10:36:38;;;;;;;;;;;;;;;-142.75;82.74;75796.75;5089872;28;20416;-75
2021/10/05 10:39:08;;;;;;;;;;;;;;;-142.75;84.23;75796.75;5075780;28;20308;-74
2021/10/05 10:41:33;;;;;;;;;;;;;;;-142.75;83.87;75773.13;5105598;28;19924;-75
2021/10/05 10:44:01;;;;;;;;;;;;;;;-142.75;83.48;75759.38;5085839;28;20010;-74
2021/10/05 10:46:28;;;;;;;;;;;;;;;-142.75;83.05;75731.81;5081183;28;19939;-74
2021/10/05 10:48:55;;;;;;;;;;;;;;;-142.75;82.65;75733.78;5084474;28;19980;-74
2021/10/05 10:51:20;;;;;;;;;;;;;;;-142.75;84.69;75773.13;5104448;28;20003;-75
2021/10/05 10:53:46;;;;;;;;;;;;;;;-142.75;84.38;75749.53;5076520;28;19916;-74
2021/10/05 10:56:15;;;;;;;;;;;;;;;-142.75;82.72;75716.06;5095317;28;19923;-75
2021/10/05 10:58:42;;;;;;;;;;;;;;;-142.75;83.25;75747.56;5085356;28;20313;-74
2021/10/05 11:01:14;;;;;;;;;;;;;;;-142.75;83.86;75747.56;5077508;28;20392;-75
2021/10/05 11:03:39;;;;;;;;;;;;;;;-142.75;83.92;75735.75;5096518;28;20006;-75
2021/10/05 11:06:15;;;;;;;;;;;;;;;-142.75;84.88;75723.94;5082729;28;20495;-75
2021/10/05 11:08:40;;;;;;;;;;;;;;;-142.75;86.52;75767.22;5101401;28;20046;-75
2021/10/05 11:11:05;;;;;;;;;;;;;;;-142.75;86.85;75747.56;5085867;28;19995;-75
2021/10/05 11:13:31;;;;;;;;;;;;;;;-142.75;86.01;75741.66;5098538;28;19916;-75
2021/10/05 11:15:56;;;;;;;;;;;;;;;-142.75;86.82;75731.81;5072556;28;19920;-75
2021/10/05 11:18:24;;;;;;;;;;;;;;;-142.75;87.16;75749.53;5101289;28;20025;-74
2021/10/05 11:20:59;;;;;;;;;;;;;;;-142.75;89.78;75751.50;5089235;28;19920;-75
2021/10/05 11:23:25;;;;;;;;;;;;;;;-142.75;92.09;75822.34;5090225;28;20003;-76
2021/10/05 11:25:52;;;;;;;;;;;;;;;-142.75;96.98;75798.72;5097526;28;20442;-75
2021/10/05 11:28:18;;;;;;;;;;;;;;;-142.75;98.45;75796.75;5094740;28;19922;-76
2021/10/05 11:30:45;;;;;;;;;;;;;;;-142.75;98.24;75792.81;5108149;28;19922;-78
2021/10/05 11:33:16;;;;;;;;;;;;;;;-142.75;100.00;75830.22;5085132;28;20014;-78
2021/10/05 11:35:42;;;;;;;;;;;;;;;-142.75;100.00;75840.06;5100703;28;19916;-77
2021/10/05 11:38:07;;;;;;;;;;;;;;;-142.75;100.00;75834.16;5082685;28;19920;-78
2021/10/05 11:40:32;;;;;;;;;;;;;;;-142.75;100.00;75865.63;5132381;22;19989;-80
2021/10/05 11:42:57;;;;;;;;;;;;;;;-142.75;100.00;75853.84;5126395;27;19920;-79
2021/10/05 11:45:27;;;;;;;;;;;;;;;-142.75;100.00;75855.81;5128294;27;19951;-80
2021/10/05 11:47:56;;;;;;;;;;;;;;;-142.75;100.00;75879.41;5131013;27;19927;-79
2021/10/05 11:50:21;;;;;;;;;;;;;;;-142.75;100.00;75871.53;5131730;27;19916;-80
2021/10/05 11:52:49;;;;;;;;;;;;;;;-142.75;100.00;75885.31;5128283;27;19916;-81
2021/10/05 11:55:14;;;;;;;;;;;;;;;-142.75;100.00;75877.44;5120683;27;19916;-81
2021/10/05 11:57:41;;;;;;;;;;;;;;;-142.75;100.00;75861.69;5128389;27;19915;-80
2021/10/05 12:00:09;;;;;;;;;;;;;;;-142.75;100.00;75875.47;5132565;27;19915;-81
2021/10/05 12:02:39;;;;;;;;;;;;;;;-142.75;100.00;75897.13;5137970;27;19915;-81
2021/10/05 12:05:05;;;;;;;;;;;;;;;-142.75;100.00;75899.09;5125136;27;19916;-82
2021/10/05 12:07:30;;;;;;;;;;;;;;;-142.75;100.00;75922.72;5112710;27;19966;-80
2021/10/05 12:09:56;;;;;;;;;;;;;;;-142.75;100.00;75908.94;5123138;27;20352;-79
2021/10/05 12:12:22;;;;;;;;;;;;;;;-142.75;100.00;75899.09;5129192;27;19915;-78
2021/10/05 12:14:47;;;;;;;;;;;;;;;-142.75;100.00;75944.38;5133042;27;20015;-81